Mahaffey, PA (15757)

2:17 AM EDT on August 26, 2016 (GMT -0400)
Twinoaks | | Change Station

Elev 1493 ft 40.99 °N, 78.53 °W | Updated 5 minutes ago

Fog
Fog
70.2 °F
Feels Like 70.2 °F
N
0.0
Wind Variable Wind from West

Today
High -- | Low -- °F
--% Chance of Precip.
Yesterday
High -- | Low -- °F
Precip. -- in
Pressure 30.06 in
Visibility 0.2 miles
Clouds
Dew Point 67 °F
Humidity 91%
Rainfall 0.00 in
Snow Depth Not available.
6:36 AM 7:56 PM
Last Quarter, 38% visible
SPECI KFIG 260608Z AUTO 19003KT 1/4SM FG VV002 22/22 A3006 RMK AO2 T02220222
Pressure 30.06 in
Visibility 0.2 miles
Clouds
Dew Point 67 °F
Humidity 91%
Rainfall 0.00 in
Snow Depth Not available.
6:36 AM 7:56 PM
Last Quarter, 38% visible
SPECI KFIG 260608Z AUTO 19003KT 1/4SM FG VV002 22/22 A3006 RMK AO2 T02220222

10-Day Weather Forecast

Almanac

Astronomy

Aug. 26, 2016 Rise Set
Actual Time
Civil Twilight
Nautical Twilight
Astronomical Twilight
Moon
Length of Visible Light
Length of Day
Tomorrow will be .
, % of the Moon is Illuminated

Today's Extremes

State Highs State Lows

Community

WunderPhotos

Upload Photos

1,935,057 photos uploaded!

WunderBlog® & News

Nearby

Air Quality

  Air Quality AQ Index Pollutant
Not available.

Snow Depth

Station Depth Elevation

Earthquake Activity

City Distance Mag. Time & Date
Minimum magnitude displayed is 2.5.

Coastal Water Temperatures

Place Temperature

Stations

Nearby Weather Stations

Station Location Temp. Windchill Dew Point Humidity Wind Precip. Elev Updated Type
                   

Watches & Warnings

There are currently no watches in effect.